sensor_id;sensor_type;location;lat;lon;timestamp;temperature;humidity
23534;DHT22;11944;50.796;4.322;2022-07-29T00:01:39;20.10;97.60
23534;DHT22;11944;50.796;4.322;2022-07-29T00:04:06;20.00;97.80
23534;DHT22;11944;50.796;4.322;2022-07-29T00:06:34;20.00;97.60
23534;DHT22;11944;50.796;4.322;2022-07-29T00:09:02;20.00;97.60
23534;DHT22;11944;50.796;4.322;2022-07-29T00:11:29;19.90;97.60
23534;DHT22;11944;50.796;4.322;2022-07-29T00:13:57;19.90;98.10
23534;DHT22;11944;50.796;4.322;2022-07-29T00:16:24;19.90;97.80
23534;DHT22;11944;50.796;4.322;2022-07-29T00:18:52;19.90;97.80
23534;DHT22;11944;50.796;4.322;2022-07-29T00:21:19;19.90;98.10
23534;DHT22;11944;50.796;4.322;2022-07-29T00:23:47;19.80;98.00
23534;DHT22;11944;50.796;4.322;2022-07-29T00:26:14;19.80;98.00
23534;DHT22;11944;50.796;4.322;2022-07-29T00:28:42;19.80;98.10
23534;DHT22;11944;50.796;4.322;2022-07-29T00:31:09;19.80;98.00
23534;DHT22;11944;50.796;4.322;2022-07-29T00:33:37;19.80;98.20
23534;DHT22;11944;50.796;4.322;2022-07-29T00:36:05;19.80;98.10
23534;DHT22;11944;50.796;4.322;2022-07-29T00:38:32;19.70;97.90
23534;DHT22;11944;50.796;4.322;2022-07-29T00:41:00;19.60;98.10
23534;DHT22;11944;50.796;4.322;2022-07-29T00:43:27;19.60;98.20
23534;DHT22;11944;50.796;4.322;2022-07-29T00:45:55;19.60;98.20
23534;DHT22;11944;50.796;4.322;2022-07-29T00:48:22;19.40;98.40
23534;DHT22;11944;50.796;4.322;2022-07-29T00:50:50;19.40;98.40
23534;DHT22;11944;50.796;4.322;2022-07-29T00:53:19;19.40;98.70
23534;DHT22;11944;50.796;4.322;2022-07-29T00:55:46;19.40;98.70
23534;DHT22;11944;50.796;4.322;2022-07-29T00:58:14;19.30;98.90
23534;DHT22;11944;50.796;4.322;2022-07-29T01:00:42;19.20;99.00
23534;DHT22;11944;50.796;4.322;2022-07-29T01:03:09;19.20;99.30
23534;DHT22;11944;50.796;4.322;2022-07-29T01:05:37;19.10;99.20
23534;DHT22;11944;50.796;4.322;2022-07-29T01:08:06;19.10;99.30
23534;DHT22;11944;50.796;4.322;2022-07-29T01:10:36;19.10;99.30
23534;DHT22;11944;50.796;4.322;2022-07-29T01:13:06;19.10;99.30
23534;DHT22;11944;50.796;4.322;2022-07-29T01:15:46;19.10;99.50
23534;DHT22;11944;50.796;4.322;2022-07-29T01:21:21;19.00;99.90
23534;DHT22;11944;50.796;4.322;2022-07-29T01:24:11;19.00;99.90
23534;DHT22;11944;50.796;4.322;2022-07-29T01:26:45;18.90;99.90
23534;DHT22;11944;50.796;4.322;2022-07-29T01:34:26;18.80;99.90
23534;DHT22;11944;50.796;4.322;2022-07-29T01:37:01;18.90;99.90
23534;DHT22;11944;50.796;4.322;2022-07-29T01:39:34;18.80;99.90
23534;DHT22;11944;50.796;4.322;2022-07-29T01:47:19;18.70;99.90
23534;DHT22;11944;50.796;4.322;2022-07-29T01:49:49;18.60;99.90
23534;DHT22;11944;50.796;4.322;2022-07-29T01:52:31;18.50;99.90
23534;DHT22;11944;50.796;4.322;2022-07-29T01:54:55;18.50;99.90
23534;DHT22;11944;50.796;4.322;2022-07-29T01:57:45;18.50;99.90
23534;DHT22;11944;50.796;4.322;2022-07-29T02:00:13;18.50;99.90
23534;DHT22;11944;50.796;4.322;2022-07-29T02:02:43;18.50;99.90
23534;DHT22;11944;50.796;4.322;2022-07-29T02:05:14;18.40;99.90
23534;DHT22;11944;50.796;4.322;2022-07-29T02:07:43;18.40;99.90
23534;DHT22;11944;50.796;4.322;2022-07-29T02:10:12;18.30;99.90
23534;DHT22;11944;50.796;4.322;2022-07-29T02:12:43;18.30;99.90
23534;DHT22;11944;50.796;4.322;2022-07-29T02:15:11;18.20;99.90
23534;DHT22;11944;50.796;4.322;2022-07-29T02:17:44;18.20;99.90
23534;DHT22;11944;50.796;4.322;2022-07-29T02:20:11;18.20;99.90
23534;DHT22;11944;50.796;4.322;2022-07-29T02:22:40;18.20;99.90
23534;DHT22;11944;50.796;4.322;2022-07-29T02:25:08;18.30;99.90
23534;DHT22;11944;50.796;4.322;2022-07-29T02:27:38;18.20;99.90
23534;DHT22;11944;50.796;4.322;2022-07-29T02:30:08;18.20;99.90
23534;DHT22;11944;50.796;4.322;2022-07-29T02:32:37;18.10;99.90
23534;DHT22;11944;50.796;4.322;2022-07-29T02:35:07;18.10;99.90
23534;DHT22;11944;50.796;4.322;2022-07-29T02:37:36;18.00;99.90
23534;DHT22;11944;50.796;4.322;2022-07-29T02:40:04;18.00;99.90
23534;DHT22;11944;50.796;4.322;2022-07-29T02:42:34;18.00;99.90
23534;DHT22;11944;50.796;4.322;2022-07-29T02:45:04;18.10;99.90
23534;DHT22;11944;50.796;4.322;2022-07-29T02:47:47;18.10;99.90
23534;DHT22;11944;50.796;4.322;2022-07-29T02:50:16;18.00;99.90
23534;DHT22;11944;50.796;4.322;2022-07-29T02:52:52;18.00;99.90
23534;DHT22;11944;50.796;4.322;2022-07-29T02:55:25;18.00;99.90
23534;DHT22;11944;50.796;4.322;2022-07-29T02:58:06;17.90;99.90
23534;DHT22;11944;50.796;4.322;2022-07-29T03:00:37;17.90;99.90
23534;DHT22;11944;50.796;4.322;2022-07-29T03:03:11;17.90;99.90
23534;DHT22;11944;50.796;4.322;2022-07-29T03:05:39;17.90;99.90
23534;DHT22;11944;50.796;4.322;2022-07-29T03:08:09;17.80;99.90
23534;DHT22;11944;50.796;4.322;2022-07-29T03:10:42;17.70;99.90
23534;DHT22;11944;50.796;4.322;2022-07-29T03:13:10;17.70;99.90
23534;DHT22;11944;50.796;4.322;2022-07-29T03:15:39;17.70;99.90
23534;DHT22;11944;50.796;4.322;2022-07-29T03:18:09;17.60;99.90
23534;DHT22;11944;50.796;4.322;2022-07-29T03:20:38;17.60;99.90
23534;DHT22;11944;50.796;4.322;2022-07-29T03:23:06;17.50;99.90
23534;DHT22;11944;50.796;4.322;2022-07-29T03:25:33;17.50;99.90
23534;DHT22;11944;50.796;4.322;2022-07-29T03:28:01;17.60;99.90
23534;DHT22;11944;50.796;4.322;2022-07-29T03:30:30;17.60;99.90
23534;DHT22;11944;50.796;4.322;2022-07-29T03:32:57;17.50;99.90
23534;DHT22;11944;50.796;4.322;2022-07-29T03:35:25;17.50;99.90
23534;DHT22;11944;50.796;4.322;2022-07-29T03:37:52;17.40;99.90
23534;DHT22;11944;50.796;4.322;2022-07-29T03:40:48;17.40;99.90
23534;DHT22;11944;50.796;4.322;2022-07-29T03:42:54;17.40;99.90
23534;DHT22;11944;50.796;4.322;2022-07-29T03:45:23;17.30;99.90
23534;DHT22;11944;50.796;4.322;2022-07-29T03:48:03;17.30;99.90
23534;DHT22;11944;50.796;4.322;2022-07-29T03:50:31;17.30;99.90
23534;DHT22;11944;50.796;4.322;2022-07-29T03:53:00;17.20;99.90
23534;DHT22;11944;50.796;4.322;2022-07-29T03:55:32;17.20;99.90
23534;DHT22;11944;50.796;4.322;2022-07-29T03:58:00;17.20;99.90
23534;DHT22;11944;50.796;4.322;2022-07-29T04:00:29;17.20;99.90
23534;DHT22;11944;50.796;4.322;2022-07-29T04:02:57;17.20;99.90
23534;DHT22;11944;50.796;4.322;2022-07-29T04:05:25;17.10;99.90
23534;DHT22;11944;50.796;4.322;2022-07-29T04:07:52;17.00;99.90
23534;DHT22;11944;50.796;4.322;2022-07-29T04:10:20;17.00;99.90
23534;DHT22;11944;50.796;4.322;2022-07-29T04:12:47;16.90;99.90
23534;DHT22;11944;50.796;4.322;2022-07-29T04:15:15;16.80;99.90
23534;DHT22;11944;50.796;4.322;2022-07-29T04:17:42;16.80;99.90
23534;DHT22;11944;50.796;4.322;2022-07-29T04:20:10;16.70;99.90
23534;DHT22;11944;50.796;4.322;2022-07-29T04:22:41;16.70;99.90
23534;DHT22;11944;50.796;4.322;2022-07-29T04:25:09;16.60;99.90
23534;DHT22;11944;50.796;4.322;2022-07-29T04:27:36;16.60;99.90
23534;DHT22;11944;50.796;4.322;2022-07-29T04:30:06;16.70;99.90
23534;DHT22;11944;50.796;4.322;2022-07-29T04:32:34;16.70;99.90
23534;DHT22;11944;50.796;4.322;2022-07-29T04:35:01;16.80;99.90
23534;DHT22;11944;50.796;4.322;2022-07-29T04:37:29;16.80;99.90
23534;DHT22;11944;50.796;4.322;2022-07-29T04:39:56;16.80;99.90
23534;DHT22;11944;50.796;4.322;2022-07-29T04:42:24;16.90;99.90
23534;DHT22;11944;50.796;4.322;2022-07-29T04:44:51;17.00;99.90
23534;DHT22;11944;50.796;4.322;2022-07-29T04:47:19;17.10;99.90
23534;DHT22;11944;50.796;4.322;2022-07-29T04:49:46;17.10;99.90
23534;DHT22;11944;50.796;4.322;2022-07-29T04:52:14;17.00;99.90
23534;DHT22;11944;50.796;4.322;2022-07-29T04:54:41;17.00;99.90
23534;DHT22;11944;50.796;4.322;2022-07-29T04:57:10;16.90;99.90
23534;DHT22;11944;50.796;4.322;2022-07-29T04:59:37;16.80;99.90
23534;DHT22;11944;50.796;4.322;2022-07-29T05:02:05;16.70;99.90
23534;DHT22;11944;50.796;4.322;2022-07-29T05:04:32;16.80;99.90
23534;DHT22;11944;50.796;4.322;2022-07-29T05:07:00;16.80;99.90
23534;DHT22;11944;50.796;4.322;2022-07-29T05:09:27;16.70;99.90
23534;DHT22;11944;50.796;4.322;2022-07-29T05:11:55;16.80;99.90
23534;DHT22;11944;50.796;4.322;2022-07-29T05:14:22;16.80;99.90
23534;DHT22;11944;50.796;4.322;2022-07-29T05:16:50;16.90;99.90
23534;DHT22;11944;50.796;4.322;2022-07-29T05:19:17;16.70;99.90
23534;DHT22;11944;50.796;4.322;2022-07-29T05:21:45;16.70;99.90
23534;DHT22;11944;50.796;4.322;2022-07-29T05:24:13;16.70;99.90
23534;DHT22;11944;50.796;4.322;2022-07-29T05:26:40;16.60;99.90
23534;DHT22;11944;50.796;4.322;2022-07-29T05:29:08;16.70;99.90
23534;DHT22;11944;50.796;4.322;2022-07-29T05:31:35;16.70;99.90
23534;DHT22;11944;50.796;4.322;2022-07-29T05:34:03;16.90;99.90
23534;DHT22;11944;50.796;4.322;2022-07-29T05:36:31;17.00;99.90
23534;DHT22;11944;50.796;4.322;2022-07-29T05:38:58;17.30;99.90
23534;DHT22;11944;50.796;4.322;2022-07-29T05:41:26;17.50;99.90
23534;DHT22;11944;50.796;4.322;2022-07-29T05:43:53;17.60;99.90
23534;DHT22;11944;50.796;4.322;2022-07-29T05:46:20;17.60;99.90
23534;DHT22;11944;50.796;4.322;2022-07-29T05:48:48;17.70;99.90
23534;DHT22;11944;50.796;4.322;2022-07-29T05:51:16;17.80;99.90
23534;DHT22;11944;50.796;4.322;2022-07-29T05:53:43;17.80;99.90
23534;DHT22;11944;50.796;4.322;2022-07-29T05:56:11;17.90;99.90
23534;DHT22;11944;50.796;4.322;2022-07-29T05:58:38;18.00;99.90
23534;DHT22;11944;50.796;4.322;2022-07-29T06:01:06;18.20;99.90
23534;DHT22;11944;50.796;4.322;2022-07-29T06:03:33;18.20;99.90
23534;DHT22;11944;50.796;4.322;2022-07-29T06:06:01;18.20;99.90
23534;DHT22;11944;50.796;4.322;2022-07-29T06:08:29;18.30;99.90
23534;DHT22;11944;50.796;4.322;2022-07-29T06:10:56;18.50;99.90
23534;DHT22;11944;50.796;4.322;2022-07-29T06:13:24;18.50;99.90
23534;DHT22;11944;50.796;4.322;2022-07-29T06:15:51;18.70;99.90
23534;DHT22;11944;50.796;4.322;2022-07-29T06:18:19;18.90;99.90
23534;DHT22;11944;50.796;4.322;2022-07-29T06:20:48;19.00;99.90
23534;DHT22;11944;50.796;4.322;2022-07-29T06:23:16;19.00;99.90
23534;DHT22;11944;50.796;4.322;2022-07-29T06:25:43;19.20;99.90
23534;DHT22;11944;50.796;4.322;2022-07-29T06:28:11;19.30;99.90
23534;DHT22;11944;50.796;4.322;2022-07-29T06:30:39;19.30;99.90
23534;DHT22;11944;50.796;4.322;2022-07-29T06:33:07;19.30;99.90
23534;DHT22;11944;50.796;4.322;2022-07-29T06:35:35;19.30;99.90
23534;DHT22;11944;50.796;4.322;2022-07-29T06:38:03;19.50;99.90
23534;DHT22;11944;50.796;4.322;2022-07-29T06:40:31;19.60;99.90
23534;DHT22;11944;50.796;4.322;2022-07-29T06:43:16;19.80;99.90
23534;DHT22;11944;50.796;4.322;2022-07-29T06:45:44;19.80;99.90
23534;DHT22;11944;50.796;4.322;2022-07-29T06:48:11;20.30;99.90
23534;DHT22;11944;50.796;4.322;2022-07-29T06:50:39;20.60;99.90
23534;DHT22;11944;50.796;4.322;2022-07-29T06:53:06;20.80;99.90
23534;DHT22;11944;50.796;4.322;2022-07-29T06:55:34;21.40;99.90
23534;DHT22;11944;50.796;4.322;2022-07-29T06:58:03;22.00;99.90
23534;DHT22;11944;50.796;4.322;2022-07-29T07:00:30;22.40;99.90
23534;DHT22;11944;50.796;4.322;2022-07-29T07:02:58;22.80;99.90
23534;DHT22;11944;50.796;4.322;2022-07-29T07:05:25;23.00;99.90
23534;DHT22;11944;50.796;4.322;2022-07-29T07:07:53;23.10;99.90
23534;DHT22;11944;50.796;4.322;2022-07-29T07:10:20;23.20;99.90
23534;DHT22;11944;50.796;4.322;2022-07-29T07:12:48;23.10;99.90
23534;DHT22;11944;50.796;4.322;2022-07-29T07:15:15;23.10;99.70
23534;DHT22;11944;50.796;4.322;2022-07-29T07:17:43;23.20;99.90
23534;DHT22;11944;50.796;4.322;2022-07-29T07:20:10;23.40;99.90
23534;DHT22;11944;50.796;4.322;2022-07-29T07:22:38;23.60;99.60
23534;DHT22;11944;50.796;4.322;2022-07-29T07:25:06;23.90;99.00
23534;DHT22;11944;50.796;4.322;2022-07-29T07:27:34;24.20;98.60
23534;DHT22;11944;50.796;4.322;2022-07-29T07:30:06;25.20;97.70
23534;DHT22;11944;50.796;4.322;2022-07-29T07:32:35;27.50;95.40
23534;DHT22;11944;50.796;4.322;2022-07-29T07:35:04;29.70;92.80
23534;DHT22;11944;50.796;4.322;2022-07-29T07:37:32;30.10;91.30
23534;DHT22;11944;50.796;4.322;2022-07-29T07:40:00;30.80;90.70
23534;DHT22;11944;50.796;4.322;2022-07-29T07:42:28;31.00;88.30
23534;DHT22;11944;50.796;4.322;2022-07-29T07:44:56;30.80;88.60
23534;DHT22;11944;50.796;4.322;2022-07-29T07:47:23;32.20;87.20
23534;DHT22;11944;50.796;4.322;2022-07-29T07:49:51;33.80;83.30
23534;DHT22;11944;50.796;4.322;2022-07-29T07:52:21;34.40;81.30
23534;DHT22;11944;50.796;4.322;2022-07-29T07:54:49;35.10;78.60
23534;DHT22;11944;50.796;4.322;2022-07-29T07:57:16;36.00;77.30
23534;DHT22;11944;50.796;4.322;2022-07-29T07:59:44;36.80;75.90
23534;DHT22;11944;50.796;4.322;2022-07-29T08:02:11;37.00;73.30
23534;DHT22;11944;50.796;4.322;2022-07-29T08:04:39;36.70;75.50
23534;DHT22;11944;50.796;4.322;2022-07-29T08:07:07;37.30;72.40
23534;DHT22;11944;50.796;4.322;2022-07-29T08:09:35;37.60;70.50
23534;DHT22;11944;50.796;4.322;2022-07-29T08:12:03;37.70;70.50
23534;DHT22;11944;50.796;4.322;2022-07-29T08:14:32;38.40;70.10
23534;DHT22;11944;50.796;4.322;2022-07-29T08:16:59;38.40;67.20
23534;DHT22;11944;50.796;4.322;2022-07-29T08:19:27;37.80;66.80
23534;DHT22;11944;50.796;4.322;2022-07-29T08:21:55;37.80;67.50
23534;DHT22;11944;50.796;4.322;2022-07-29T08:24:22;37.50;67.70
23534;DHT22;11944;50.796;4.322;2022-07-29T08:27:08;37.50;69.00
23534;DHT22;11944;50.796;4.322;2022-07-29T08:29:38;37.60;68.30
23534;DHT22;11944;50.796;4.322;2022-07-29T08:32:06;37.60;66.00
23534;DHT22;11944;50.796;4.322;2022-07-29T08:34:34;38.20;66.90
23534;DHT22;11944;50.796;4.322;2022-07-29T08:37:01;38.10;66.30
23534;DHT22;11944;50.796;4.322;2022-07-29T08:39:29;37.80;66.10
23534;DHT22;11944;50.796;4.322;2022-07-29T08:41:56;36.60;65.90
23534;DHT22;11944;50.796;4.322;2022-07-29T08:44:24;36.40;69.00
23534;DHT22;11944;50.796;4.322;2022-07-29T08:46:53;37.00;67.60
23534;DHT22;11944;50.796;4.322;2022-07-29T08:49:22;37.40;68.20
23534;DHT22;11944;50.796;4.322;2022-07-29T08:54:39;37.10;67.50
23534;DHT22;11944;50.796;4.322;2022-07-29T08:57:06;37.40;67.10
23534;DHT22;11944;50.796;4.322;2022-07-29T08:59:34;37.40;66.70
23534;DHT22;11944;50.796;4.322;2022-07-29T09:02:03;37.40;65.00
23534;DHT22;11944;50.796;4.322;2022-07-29T09:04:33;37.30;65.20
23534;DHT22;11944;50.796;4.322;2022-07-29T09:07:03;37.30;67.80
23534;DHT22;11944;50.796;4.322;2022-07-29T09:09:33;37.90;64.00
23534;DHT22;11944;50.796;4.322;2022-07-29T09:12:01;36.50;64.40
23534;DHT22;11944;50.796;4.322;2022-07-29T09:14:30;36.20;66.50
23534;DHT22;11944;50.796;4.322;2022-07-29T09:16:57;36.50;68.20
23534;DHT22;11944;50.796;4.322;2022-07-29T09:19:33;36.70;66.50
23534;DHT22;11944;50.796;4.322;2022-07-29T09:22:05;36.60;68.00
23534;DHT22;11944;50.796;4.322;2022-07-29T09:24:39;36.40;66.40
23534;DHT22;11944;50.796;4.322;2022-07-29T09:27:22;36.70;65.60
23534;DHT22;11944;50.796;4.322;2022-07-29T09:30:03;37.30;65.70
23534;DHT22;11944;50.796;4.322;2022-07-29T09:32:32;36.50;64.40
23534;DHT22;11944;50.796;4.322;2022-07-29T09:35:20;36.30;64.50
23534;DHT22;11944;50.796;4.322;2022-07-29T09:37:48;36.00;63.90
23534;DHT22;11944;50.796;4.322;2022-07-29T09:40:18;36.30;66.30
23534;DHT22;11944;50.796;4.322;2022-07-29T09:42:46;36.80;64.90
23534;DHT22;11944;50.796;4.322;2022-07-29T09:45:28;36.80;65.00
23534;DHT22;11944;50.796;4.322;2022-07-29T09:47:56;37.10;63.20
23534;DHT22;11944;50.796;4.322;2022-07-29T09:50:37;36.90;65.00
23534;DHT22;11944;50.796;4.322;2022-07-29T09:53:04;37.10;62.80
23534;DHT22;11944;50.796;4.322;2022-07-29T09:55:32;36.50;62.20
23534;DHT22;11944;50.796;4.322;2022-07-29T09:58:19;35.30;64.00
23534;DHT22;11944;50.796;4.322;2022-07-29T10:00:49;34.10;65.80
23534;DHT22;11944;50.796;4.322;2022-07-29T10:03:18;33.20;69.40
23534;DHT22;11944;50.796;4.322;2022-07-29T10:05:47;33.20;69.00
23534;DHT22;11944;50.796;4.322;2022-07-29T10:08:19;32.40;67.80
23534;DHT22;11944;50.796;4.322;2022-07-29T10:10:45;32.40;70.60
23534;DHT22;11944;50.796;4.322;2022-07-29T10:13:14;32.80;71.10
23534;DHT22;11944;50.796;4.322;2022-07-29T10:15:43;33.30;70.00
23534;DHT22;11944;50.796;4.322;2022-07-29T10:18:13;32.90;72.80
23534;DHT22;11944;50.796;4.322;2022-07-29T10:20:43;32.20;69.70
23534;DHT22;11944;50.796;4.322;2022-07-29T10:23:10;31.60;71.20
23534;DHT22;11944;50.796;4.322;2022-07-29T10:25:39;30.90;74.00
23534;DHT22;11944;50.796;4.322;2022-07-29T10:28:06;30.70;75.50
23534;DHT22;11944;50.796;4.322;2022-07-29T10:30:34;30.90;73.10
23534;DHT22;11944;50.796;4.322;2022-07-29T10:44:22;30.10;75.90
23534;DHT22;11944;50.796;4.322;2022-07-29T10:46:52;29.80;75.50
23534;DHT22;11944;50.796;4.322;2022-07-29T10:49:25;30.70;78.90
23534;DHT22;11944;50.796;4.322;2022-07-29T10:57:15;33.60;73.10
23534;DHT22;11944;50.796;4.322;2022-07-29T10:59:45;33.40;69.10
23534;DHT22;11944;50.796;4.322;2022-07-29T11:05:04;32.10;70.00
23534;DHT22;11944;50.796;4.322;2022-07-29T11:07:32;31.40;76.10
23534;DHT22;11944;50.796;4.322;2022-07-29T11:12:47;31.20;73.60
23534;DHT22;11944;50.796;4.322;2022-07-29T11:18:07;32.10;75.10
23534;DHT22;11944;50.796;4.322;2022-07-29T11:23:34;32.20;69.60
23534;DHT22;11944;50.796;4.322;2022-07-29T11:31:32;32.20;65.40
23534;DHT22;11944;50.796;4.322;2022-07-29T11:40:07;31.50;69.40
23534;DHT22;11944;50.796;4.322;2022-07-29T11:45:19;32.20;67.50
23534;DHT22;11944;50.796;4.322;2022-07-29T11:47:50;31.90;67.60
23534;DHT22;11944;50.796;4.322;2022-07-29T11:50:35;31.80;69.70
23534;DHT22;11944;50.796;4.322;2022-07-29T11:53:22;31.60;67.80
23534;DHT22;11944;50.796;4.322;2022-07-29T11:55:54;31.40;67.50
23534;DHT22;11944;50.796;4.322;2022-07-29T11:58:22;31.10;69.70
23534;DHT22;11944;50.796;4.322;2022-07-29T12:00:50;31.40;69.10
23534;DHT22;11944;50.796;4.322;2022-07-29T12:03:27;31.30;68.70
23534;DHT22;11944;50.796;4.322;2022-07-29T12:05:55;31.20;70.70
23534;DHT22;11944;50.796;4.322;2022-07-29T12:08:22;31.20;69.00
23534;DHT22;11944;50.796;4.322;2022-07-29T12:10:52;31.40;68.40
23534;DHT22;11944;50.796;4.322;2022-07-29T12:13:20;31.10;69.40
23534;DHT22;11944;50.796;4.322;2022-07-29T12:15:56;30.60;73.40
23534;DHT22;11944;50.796;4.322;2022-07-29T12:18:27;30.50;70.20
23534;DHT22;11944;50.796;4.322;2022-07-29T12:21:01;30.80;71.80
23534;DHT22;11944;50.796;4.322;2022-07-29T12:23:31;31.10;68.80
23534;DHT22;11944;50.796;4.322;2022-07-29T12:25:59;31.30;69.00
23534;DHT22;11944;50.796;4.322;2022-07-29T12:28:27;31.10;67.30
23534;DHT22;11944;50.796;4.322;2022-07-29T12:30:55;31.10;69.00
23534;DHT22;11944;50.796;4.322;2022-07-29T12:33:24;30.70;69.60
23534;DHT22;11944;50.796;4.322;2022-07-29T12:35:59;30.20;71.70
23534;DHT22;11944;50.796;4.322;2022-07-29T12:38:28;29.60;70.50
23534;DHT22;11944;50.796;4.322;2022-07-29T12:40:56;29.20;70.80
23534;DHT22;11944;50.796;4.322;2022-07-29T12:43:24;29.20;72.30
23534;DHT22;11944;50.796;4.322;2022-07-29T12:45:54;29.60;71.10
23534;DHT22;11944;50.796;4.322;2022-07-29T12:48:37;30.20;72.90
23534;DHT22;11944;50.796;4.322;2022-07-29T12:51:06;30.60;72.20
23534;DHT22;11944;50.796;4.322;2022-07-29T12:53:36;30.70;70.80
23534;DHT22;11944;50.796;4.322;2022-07-29T12:56:04;30.60;70.60
23534;DHT22;11944;50.796;4.322;2022-07-29T13:01:12;30.80;71.80
23534;DHT22;11944;50.796;4.322;2022-07-29T13:03:51;30.40;70.50
23534;DHT22;11944;50.796;4.322;2022-07-29T13:06:40;29.90;72.50
23534;DHT22;11944;50.796;4.322;2022-07-29T13:09:13;29.10;73.40
23534;DHT22;11944;50.796;4.322;2022-07-29T13:11:44;28.80;73.10
23534;DHT22;11944;50.796;4.322;2022-07-29T13:14:11;28.70;76.90
23534;DHT22;11944;50.796;4.322;2022-07-29T13:17:06;28.60;75.60
23534;DHT22;11944;50.796;4.322;2022-07-29T13:19:41;28.40;76.10
23534;DHT22;11944;50.796;4.322;2022-07-29T13:22:14;28.50;75.90
23534;DHT22;11944;50.796;4.322;2022-07-29T13:27:20;29.70;76.10
23534;DHT22;11944;50.796;4.322;2022-07-29T13:29:49;29.90;72.80
23534;DHT22;11944;50.796;4.322;2022-07-29T13:32:19;30.10;72.20
23534;DHT22;11944;50.796;4.322;2022-07-29T13:34:47;30.00;71.40
23534;DHT22;11944;50.796;4.322;2022-07-29T13:37:15;29.60;75.10
23534;DHT22;11944;50.796;4.322;2022-07-29T13:39:45;29.30;73.60
23534;DHT22;11944;50.796;4.322;2022-07-29T13:42:14;29.20;75.40
23534;DHT22;11944;50.796;4.322;2022-07-29T13:44:42;29.40;73.00
23534;DHT22;11944;50.796;4.322;2022-07-29T13:47:10;29.70;74.40
23534;DHT22;11944;50.796;4.322;2022-07-29T13:49:37;29.70;72.50
23534;DHT22;11944;50.796;4.322;2022-07-29T13:52:05;29.90;72.30
23534;DHT22;11944;50.796;4.322;2022-07-29T13:54:33;30.00;70.80
23534;DHT22;11944;50.796;4.322;2022-07-29T13:57:03;30.00;73.50
23534;DHT22;11944;50.796;4.322;2022-07-29T13:59:30;29.90;74.50
23534;DHT22;11944;50.796;4.322;2022-07-29T14:01:58;29.90;74.90
23534;DHT22;11944;50.796;4.322;2022-07-29T14:04:25;30.00;72.00
23534;DHT22;11944;50.796;4.322;2022-07-29T14:06:53;29.90;68.30
23534;DHT22;11944;50.796;4.322;2022-07-29T14:09:21;29.80;74.00
23534;DHT22;11944;50.796;4.322;2022-07-29T14:11:48;29.50;71.30
23534;DHT22;11944;50.796;4.322;2022-07-29T14:14:18;28.60;71.10
23534;DHT22;11944;50.796;4.322;2022-07-29T14:16:45;28.10;71.30
23534;DHT22;11944;50.796;4.322;2022-07-29T14:19:13;28.40;73.00
23534;DHT22;11944;50.796;4.322;2022-07-29T14:21:41;28.50;72.20
23534;DHT22;11944;50.796;4.322;2022-07-29T14:24:08;28.80;70.80
23534;DHT22;11944;50.796;4.322;2022-07-29T14:26:36;29.10;71.50
23534;DHT22;11944;50.796;4.322;2022-07-29T14:29:03;29.00;67.50
23534;DHT22;11944;50.796;4.322;2022-07-29T14:31:31;28.50;68.10
23534;DHT22;11944;50.796;4.322;2022-07-29T14:33:58;27.70;68.10
23534;DHT22;11944;50.796;4.322;2022-07-29T14:36:26;27.30;71.10
23534;DHT22;11944;50.796;4.322;2022-07-29T14:38:54;27.40;72.00
23534;DHT22;11944;50.796;4.322;2022-07-29T14:41:21;27.30;73.10
23534;DHT22;11944;50.796;4.322;2022-07-29T14:43:49;26.90;71.10
23534;DHT22;11944;50.796;4.322;2022-07-29T14:46:16;27.00;73.80
23534;DHT22;11944;50.796;4.322;2022-07-29T14:48:44;27.20;74.00
23534;DHT22;11944;50.796;4.322;2022-07-29T14:51:11;27.80;74.60
23534;DHT22;11944;50.796;4.322;2022-07-29T14:53:39;28.20;73.20
23534;DHT22;11944;50.796;4.322;2022-07-29T14:56:06;28.10;73.70
23534;DHT22;11944;50.796;4.322;2022-07-29T14:58:35;28.20;71.60
23534;DHT22;11944;50.796;4.322;2022-07-29T15:01:02;28.40;69.40
23534;DHT22;11944;50.796;4.322;2022-07-29T15:03:30;28.70;69.80
23534;DHT22;11944;50.796;4.322;2022-07-29T15:05:57;28.70;71.50
23534;DHT22;11944;50.796;4.322;2022-07-29T15:08:25;28.60;69.00
23534;DHT22;11944;50.796;4.322;2022-07-29T15:10:54;28.80;71.90
23534;DHT22;11944;50.796;4.322;2022-07-29T15:13:23;28.80;71.30
23534;DHT22;11944;50.796;4.322;2022-07-29T15:15:51;28.90;69.30
23534;DHT22;11944;50.796;4.322;2022-07-29T15:18:18;29.00;68.80
23534;DHT22;11944;50.796;4.322;2022-07-29T15:20:46;29.10;72.00
23534;DHT22;11944;50.796;4.322;2022-07-29T15:23:13;29.30;71.80
23534;DHT22;11944;50.796;4.322;2022-07-29T15:25:41;29.50;70.60
23534;DHT22;11944;50.796;4.322;2022-07-29T15:28:08;28.50;70.70
23534;DHT22;11944;50.796;4.322;2022-07-29T15:30:36;28.30;71.30
23534;DHT22;11944;50.796;4.322;2022-07-29T15:33:06;28.40;71.40
23534;DHT22;11944;50.796;4.322;2022-07-29T15:35:35;28.50;72.50
23534;DHT22;11944;50.796;4.322;2022-07-29T15:38:02;28.60;71.10
23534;DHT22;11944;50.796;4.322;2022-07-29T15:40:30;28.70;71.00
23534;DHT22;11944;50.796;4.322;2022-07-29T15:42:58;28.80;70.80
23534;DHT22;11944;50.796;4.322;2022-07-29T15:45:27;28.90;71.00
23534;DHT22;11944;50.796;4.322;2022-07-29T15:47:54;28.90;72.00
23534;DHT22;11944;50.796;4.322;2022-07-29T15:50:22;28.70;73.90
23534;DHT22;11944;50.796;4.322;2022-07-29T15:52:49;28.70;73.50
23534;DHT22;11944;50.796;4.322;2022-07-29T15:55:17;28.70;73.20
23534;DHT22;11944;50.796;4.322;2022-07-29T15:57:44;28.70;72.30
23534;DHT22;11944;50.796;4.322;2022-07-29T16:00:12;28.70;74.10
23534;DHT22;11944;50.796;4.322;2022-07-29T16:02:40;28.70;72.80
23534;DHT22;11944;50.796;4.322;2022-07-29T16:05:07;28.80;73.20
23534;DHT22;11944;50.796;4.322;2022-07-29T16:07:35;28.60;71.70
23534;DHT22;11944;50.796;4.322;2022-07-29T16:10:03;28.50;74.50
23534;DHT22;11944;50.796;4.322;2022-07-29T16:12:32;28.40;73.70
23534;DHT22;11944;50.796;4.322;2022-07-29T16:15:00;28.40;75.90
23534;DHT22;11944;50.796;4.322;2022-07-29T16:17:27;28.30;72.70
23534;DHT22;11944;50.796;4.322;2022-07-29T16:19:55;28.30;74.90
23534;DHT22;11944;50.796;4.322;2022-07-29T16:22:23;28.40;72.90
23534;DHT22;11944;50.796;4.322;2022-07-29T16:24:50;28.30;74.00
23534;DHT22;11944;50.796;4.322;2022-07-29T16:27:18;28.50;73.00
23534;DHT22;11944;50.796;4.322;2022-07-29T16:29:47;28.50;75.30
23534;DHT22;11944;50.796;4.322;2022-07-29T16:32:15;28.50;74.60
23534;DHT22;11944;50.796;4.322;2022-07-29T16:34:43;28.20;73.00
23534;DHT22;11944;50.796;4.322;2022-07-29T16:37:10;28.30;73.70
23534;DHT22;11944;50.796;4.322;2022-07-29T16:39:38;28.20;73.10
23534;DHT22;11944;50.796;4.322;2022-07-29T16:42:05;28.10;73.90
23534;DHT22;11944;50.796;4.322;2022-07-29T16:44:33;28.10;74.10
23534;DHT22;11944;50.796;4.322;2022-07-29T16:47:01;28.00;74.20